Terminal Aerodrome Forecast
Issued by NWS

Home | Current Version | Previous Version | Text Only | Print | Product List | Glossary On
Versions: 1 2 3 4 5 6 7 8 9 10 11 12
000
FTUS43 KGRR 282300 RRA
TAFAZO
TAF
KAZO 282343Z 2900/2924 16010KT P6SM OVC150
     FM290200 16012KT P6SM OVC120 WS020/18050KT
     FM290600 16013KT 4SM -FZRAPL OVC025 WS020/20050KT
     FM290900 17013KT 3SM -FZRA OVC009
     FM291500 21010KT 3SM -FZRAPL OVC009
     FM291800 30015G25KT 5SM -SHSN OVC015=

USA.gov is the U.S. government's official web portal to all federal, state and local government web resources and services.